createdAt,value
2023-07-18T05:25:40.834Z,13.50
2023-07-18T05:28:42.980Z,13.60
2023-07-18T05:31:44.713Z,13.70
2023-07-18T05:34:46.439Z,13.90
2023-07-18T05:37:48.240Z,14.00
2023-07-18T05:40:49.943Z,14.10
2023-07-18T05:43:52.516Z,14.20
2023-07-18T05:46:54.394Z,14.20
2023-07-18T05:49:56.123Z,14.30
2023-07-18T05:52:57.809Z,14.40
2023-07-18T05:56:00.607Z,14.50
2023-07-18T05:59:02.512Z,14.60
2023-07-18T06:02:05.244Z,14.60
2023-07-18T06:05:08.026Z,14.70
2023-07-18T06:08:10.925Z,14.80
2023-07-18T06:11:12.651Z,15.00
2023-07-18T06:14:14.432Z,15.10
2023-07-18T06:17:17.643Z,15.30
2023-07-18T06:20:19.549Z,15.40
2023-07-18T06:23:21.313Z,15.60
2023-07-18T06:26:23.591Z,15.80
2023-07-18T06:29:25.460Z,15.90
2023-07-18T06:32:28.766Z,16.10
2023-07-18T06:35:31.269Z,16.20
2023-07-18T06:38:33.138Z,16.40
2023-07-18T06:41:34.917Z,16.50
2023-07-18T06:44:36.649Z,16.60
2023-07-18T06:47:38.683Z,16.70
2023-07-18T06:50:47.395Z,16.80
2023-07-18T06:53:49.109Z,17.00
2023-07-18T06:56:51.236Z,17.20
2023-07-18T06:59:53.708Z,17.20
2023-07-18T07:02:55.877Z,17.30
2023-07-18T07:05:57.966Z,17.40
2023-07-18T07:08:59.750Z,17.50
2023-07-18T07:12:02.162Z,17.60
2023-07-18T07:15:04.940Z,17.70
2023-07-18T07:18:07.340Z,17.80
2023-07-18T07:21:11.507Z,18.10
2023-07-18T07:24:13.134Z,18.20
2023-07-18T07:27:24.398Z,18.40
2023-07-18T07:30:26.546Z,18.50
2023-07-18T07:38:34.398Z,18.70
2023-07-18T07:42:04.575Z,18.90
2023-07-18T07:46:14.285Z,19.20
2023-07-18T07:51:04.239Z,19.40
2023-07-18T08:03:27.104Z,19.50
2023-07-18T08:32:22.463Z,20.30
2023-07-18T08:53:45.690Z,20.00
2023-07-18T08:57:54.954Z,20.40
2023-07-18T09:00:56.857Z,20.60
2023-07-18T09:03:58.669Z,20.80
2023-07-18T09:07:01.467Z,20.80
2023-07-18T09:10:05.062Z,21.00
2023-07-18T09:13:08.666Z,21.20
2023-07-18T09:16:21.310Z,21.50
2023-07-18T09:19:42.804Z,21.50
2023-07-18T09:22:44.686Z,21.50
2023-07-18T09:25:46.563Z,21.40
2023-07-18T09:28:48.643Z,21.50
2023-07-18T09:31:51.321Z,21.50
2023-07-18T09:34:58.007Z,21.50
2023-07-18T09:37:59.737Z,21.40
2023-07-18T09:41:03.419Z,21.30
2023-07-18T09:44:28.465Z,21.10
2023-07-18T09:47:46.963Z,21.10
2023-07-18T09:50:49.200Z,21.50
2023-07-18T09:53:51.744Z,21.90
2023-07-18T09:56:53.972Z,22.00
2023-07-18T09:59:55.699Z,22.00
2023-07-18T10:02:57.594Z,21.90
2023-07-18T10:05:59.641Z,21.70
2023-07-18T10:09:01.864Z,21.70
2023-07-18T10:12:03.581Z,21.60
2023-07-18T10:15:05.862Z,21.50
2023-07-18T10:18:18.084Z,21.60
2023-07-18T10:21:30.173Z,21.80
2023-07-18T10:24:33.329Z,22.10
2023-07-18T10:27:39.593Z,22.10
2023-07-18T10:30:43.015Z,22.20
2023-07-18T10:34:15.194Z,22.30
2023-07-18T10:37:20.843Z,22.20
2023-07-18T10:40:43.985Z,22.20
2023-07-18T10:43:49.237Z,22.40
2023-07-18T10:46:51.188Z,22.50
2023-07-18T10:49:53.898Z,22.70
2023-07-18T10:52:56.463Z,22.80
2023-07-18T10:55:58.999Z,22.80
2023-07-18T10:59:00.768Z,22.80
2023-07-18T11:02:02.872Z,22.80
2023-07-18T11:05:12.935Z,22.90
2023-07-18T11:08:26.712Z,23.00
2023-07-18T11:11:28.567Z,23.20
2023-07-18T11:14:42.948Z,23.20
2023-07-18T11:17:44.997Z,23.10
2023-07-18T11:20:46.746Z,23.10
2023-07-18T11:23:48.542Z,23.20
2023-07-18T11:27:10.828Z,23.30
2023-07-18T11:30:12.690Z,23.40
2023-07-18T11:33:14.646Z,23.30
2023-07-18T11:36:18.696Z,23.20
2023-07-18T11:39:22.075Z,23.10
2023-07-18T11:42:24.261Z,23.30
2023-07-18T11:45:29.585Z,23.40
2023-07-18T11:48:32.823Z,23.50
2023-07-18T11:51:34.989Z,23.50
2023-07-18T11:54:37.131Z,23.40
2023-07-18T11:57:39.301Z,23.40
2023-07-18T12:00:41.059Z,23.40
2023-07-18T12:03:42.984Z,23.40
2023-07-18T12:06:45.010Z,23.20
2023-07-18T12:09:46.806Z,23.10
2023-07-18T12:12:48.558Z,23.10
2023-07-18T12:15:50.570Z,23.20
2023-07-18T12:18:52.396Z,23.40
2023-07-18T12:21:54.572Z,23.40
2023-07-18T12:24:56.330Z,23.10
2023-07-18T12:27:58.299Z,22.90
2023-07-18T12:31:00.133Z,22.80
2023-07-18T12:34:01.982Z,22.90
2023-07-18T12:37:03.933Z,23.10
2023-07-18T12:40:06.985Z,23.20
2023-07-18T12:43:09.007Z,23.50
2023-07-18T12:46:10.989Z,23.60
2023-07-18T12:49:13.216Z,23.60
2023-07-18T12:52:15.499Z,23.60
2023-07-18T12:55:17.437Z,23.40
2023-07-18T12:58:19.213Z,23.50
2023-07-18T13:01:21.699Z,23.60
2023-07-18T13:04:24.524Z,23.50
2023-07-18T13:07:26.391Z,23.50
2023-07-18T13:10:28.125Z,23.40
2023-07-18T13:13:29.865Z,23.30
2023-07-18T13:16:32.118Z,23.20
2023-07-18T13:19:33.941Z,23.00
2023-07-18T13:22:35.740Z,23.00
2023-07-18T13:25:37.766Z,23.00
2023-07-18T13:28:39.698Z,23.50
2023-07-18T13:31:42.875Z,23.80
2023-07-18T13:34:44.912Z,23.90
2023-07-18T13:37:46.780Z,24.20
2023-07-18T13:40:48.615Z,24.40
2023-07-18T13:43:50.862Z,24.20
2023-07-18T13:46:52.935Z,24.00
2023-07-18T13:49:54.665Z,23.80
2023-07-18T13:52:56.421Z,23.60
2023-07-18T13:55:58.209Z,23.40
2023-07-18T13:59:00.588Z,23.30
2023-07-18T14:02:02.389Z,23.20
2023-07-18T14:05:06.447Z,23.20
2023-07-18T14:08:08.266Z,23.10
2023-07-18T14:11:10.609Z,23.00
2023-07-18T14:14:12.416Z,23.10
2023-07-18T14:17:14.442Z,23.00
2023-07-18T14:20:16.237Z,22.90
2023-07-18T14:23:18.414Z,22.70
2023-07-18T14:26:21.662Z,22.70
2023-07-18T14:29:23.808Z,22.70
2023-07-18T14:32:25.851Z,22.80
2023-07-18T14:35:27.899Z,23.00
2023-07-18T14:38:29.644Z,23.20
2023-07-18T14:41:31.457Z,23.40
2023-07-18T14:44:37.869Z,23.50
2023-07-18T14:47:39.925Z,23.40
2023-07-18T14:50:44.416Z,23.30
2023-07-18T14:53:46.262Z,23.20
2023-07-18T14:56:48.124Z,23.20
2023-07-18T14:59:51.122Z,23.20
2023-07-18T15:02:52.988Z,23.30
2023-07-18T15:05:54.996Z,23.40
2023-07-18T15:08:57.082Z,23.50
2023-07-18T15:11:58.819Z,23.60
2023-07-18T15:15:00.949Z,23.60
2023-07-18T15:18:02.842Z,23.70
2023-07-18T15:21:04.694Z,23.70
2023-07-18T15:24:07.061Z,23.70
2023-07-18T15:27:08.940Z,23.80
2023-07-18T15:30:11.245Z,23.90
2023-07-18T15:36:23.203Z,23.90
2023-07-18T15:39:24.945Z,23.90
2023-07-18T15:42:26.692Z,23.90
2023-07-18T15:45:29.002Z,23.80
2023-07-18T15:48:30.879Z,23.90
2023-07-18T15:51:32.937Z,23.90
2023-07-18T15:54:35.123Z,24.00
2023-07-18T15:57:37.264Z,24.10
2023-07-18T16:00:39.237Z,24.00
2023-07-18T16:03:41.077Z,24.60
2023-07-18T16:06:44.106Z,25.60
2023-07-18T16:09:51.553Z,26.60
2023-07-18T16:12:53.344Z,26.80
2023-07-18T16:15:55.472Z,26.20
2023-07-18T16:18:58.737Z,26.00
2023-07-18T16:22:00.495Z,26.00
2023-07-18T16:25:05.812Z,25.80
2023-07-18T16:28:07.806Z,26.00
2023-07-18T16:31:09.619Z,25.90
2023-07-18T16:34:12.158Z,25.70
2023-07-18T16:37:14.247Z,25.20
2023-07-18T16:40:16.080Z,24.60
2023-07-18T16:43:17.801Z,24.20
2023-07-18T16:46:20.212Z,23.80
2023-07-18T16:49:22.142Z,23.60
2023-07-18T16:52:23.905Z,23.50
2023-07-18T16:55:25.958Z,23.50
2023-07-18T16:58:28.036Z,23.70
2023-07-18T17:01:30.355Z,23.90
2023-07-18T17:04:32.253Z,24.00
2023-07-18T17:07:34.300Z,24.00
2023-07-18T17:10:36.932Z,24.00
2023-07-18T17:13:38.736Z,24.00
2023-07-18T17:16:40.653Z,23.90
2023-07-18T17:19:53.559Z,23.90
2023-07-18T17:23:05.116Z,23.70
2023-07-18T17:26:10.165Z,23.50
2023-07-18T17:29:11.993Z,23.40
2023-07-18T17:32:13.786Z,23.70
2023-07-18T17:35:16.286Z,23.90
2023-07-18T17:38:18.712Z,24.00
2023-07-18T17:41:21.345Z,24.00
2023-07-18T17:44:23.253Z,24.00
2023-07-18T17:47:25.293Z,23.60
2023-07-18T17:50:27.077Z,23.50
2023-07-18T17:53:28.920Z,23.40
2023-07-18T17:56:31.050Z,23.30
2023-07-18T17:59:33.691Z,23.40
2023-07-18T18:02:35.661Z,23.30
2023-07-18T18:05:46.580Z,23.10
2023-07-18T18:08:49.462Z,22.80
2023-07-18T18:11:54.095Z,22.70
2023-07-18T18:14:58.388Z,22.60
2023-07-18T18:18:00.788Z,22.50
2023-07-18T18:21:05.079Z,22.50
2023-07-18T18:24:07.062Z,22.40
2023-07-18T18:27:09.220Z,22.30
2023-07-18T18:30:12.201Z,22.30
2023-07-18T18:33:13.943Z,22.30
2023-07-18T18:36:16.180Z,22.30
2023-07-18T18:39:18.630Z,22.20
2023-07-18T18:42:20.431Z,22.10
2023-07-18T18:45:22.404Z,22.00
2023-07-18T18:48:24.383Z,21.90
2023-07-18T18:51:26.315Z,21.70
2023-07-18T18:54:28.051Z,21.50
2023-07-18T18:57:30.683Z,21.40
2023-07-18T19:00:32.451Z,21.30
2023-07-18T19:03:34.272Z,21.10
2023-07-18T19:06:36.536Z,21.10
2023-07-18T19:09:40.612Z,21.00
2023-07-18T19:12:42.446Z,20.90
2023-07-18T19:15:44.456Z,20.80
2023-07-18T19:18:46.186Z,20.70
2023-07-18T19:21:48.182Z,20.60
2023-07-18T19:24:49.894Z,20.50
2023-07-18T19:27:51.686Z,20.50
2023-07-18T19:30:53.604Z,20.50
2023-07-18T19:33:55.352Z,20.50
2023-07-18T19:36:57.141Z,20.50
2023-07-18T19:39:58.939Z,20.30
2023-07-18T19:43:00.742Z,20.30
2023-07-18T19:46:03.951Z,20.20
2023-07-18T19:49:05.705Z,20.10
2023-07-18T19:52:07.795Z,20.00
2023-07-18T19:55:10.713Z,20.00
2023-07-18T19:58:12.414Z,20.00
2023-07-18T20:01:15.383Z,20.00
2023-07-18T20:04:17.519Z,19.90
2023-07-18T20:07:19.568Z,19.90
2023-07-18T20:10:21.731Z,19.80
2023-07-18T20:13:23.832Z,19.70
2023-07-18T20:16:25.819Z,19.70
2023-07-18T20:19:28.053Z,19.70
2023-07-18T20:22:29.811Z,19.60
2023-07-18T20:25:31.643Z,19.50
2023-07-18T20:28:33.897Z,19.50
2023-07-18T20:31:35.666Z,19.50
2023-07-18T20:34:38.962Z,19.40
2023-07-18T20:37:42.614Z,19.40
2023-07-18T20:40:44.385Z,19.40
2023-07-18T20:43:46.225Z,19.30
2023-07-18T20:46:48.032Z,19.30
2023-07-18T20:49:50.041Z,19.20
2023-07-18T20:52:51.884Z,19.20
2023-07-18T20:55:54.007Z,19.10
2023-07-18T20:58:55.918Z,19.10
2023-07-18T21:01:57.913Z,19.10
2023-07-18T21:04:59.837Z,19.00
2023-07-18T21:08:02.051Z,19.00
2023-07-18T21:11:03.775Z,18.90
2023-07-18T21:14:05.809Z,18.90
2023-07-18T21:17:07.611Z,18.80
